Time;durP1;ratioP1;P1;durP2;ratioP2;P2;SDS_P1;SDS_P2;PMS_P1;PMS_P2;Temp;Humidity;BMP_temperature;BMP_pressure;BME280_temperature;BME280_humidity;BME280_pressure;Samples;Min_cycle;Max_cycle;Signal;HPM_P1;HPM_P2
2020/12/12 00:01:48;;;;;;;100.70;26.17;;;;;;;;;;8111870;28;20398;-73
2020/12/12 00:05:51;;;;;;;77.35;22.25;;;;;;;;;;8111175;28;20631;-74
2020/12/12 00:09:55;;;;;;;72.13;21.40;;;;;;;;;;8118093;28;20073;-73
2020/12/12 00:13:58;;;;;;;58.25;15.70;;;;;;;;;;8103180;28;20565;-73
2020/12/12 00:18:01;;;;;;;44.70;16.05;;;;;;;;;;8103320;28;20406;-73
2020/12/12 00:44:50;;;;;;;35.22;14.82;;;;;;;;;;8102953;28;20501;-74
2020/12/12 02:51:40;;;;;;;62.55;21.50;;;;;;;;;;8113417;28;20050;-74
2020/12/12 02:55:43;;;;;;;40.27;16.40;;;;;;;;;;8130577;28;20562;-73
2020/12/12 02:59:46;;;;;;;47.47;21.23;;;;;;;;;;8128610;28;21219;-73
2020/12/12 03:03:49;;;;;;;61.35;24.13;;;;;;;;;;8112576;28;20050;-74
2020/12/12 03:07:52;;;;;;;41.55;16.63;;;;;;;;;;8130470;28;20465;-74
2020/12/12 03:11:55;;;;;;;68.85;25.50;;;;;;;;;;8130178;28;20389;-74
2020/12/12 03:15:59;;;;;;;34.55;15.13;;;;;;;;;;8112597;28;20611;-73
2020/12/12 03:20:05;;;;;;;62.97;23.98;;;;;;;;;;8129249;28;20670;-74
2020/12/12 03:24:08;;;;;;;32.47;15.00;;;;;;;;;;8129697;28;20500;-74
2020/12/12 03:28:11;;;;;;;26.40;11.82;;;;;;;;;;8127785;28;20046;-74
2020/12/12 03:32:14;;;;;;;43.00;18.05;;;;;;;;;;8079981;28;20413;-73
2020/12/12 03:36:17;;;;;;;38.08;13.98;;;;;;;;;;8129896;28;20073;-73
2020/12/12 03:40:22;;;;;;;28.50;13.15;;;;;;;;;;8128582;28;20429;-74
2020/12/12 03:44:26;;;;;;;30.85;13.45;;;;;;;;;;8134979;28;20673;-74
2020/12/12 03:48:29;;;;;;;38.00;15.27;;;;;;;;;;8117108;28;20481;-74
2020/12/12 03:52:32;;;;;;;31.55;12.95;;;;;;;;;;8133583;28;20396;-74
2020/12/12 03:56:35;;;;;;;37.38;16.48;;;;;;;;;;8135498;28;20666;-74
2020/12/12 04:00:38;;;;;;;29.63;15.20;;;;;;;;;;8067138;29;20114;-74
2020/12/12 04:04:42;;;;;;;29.33;12.30;;;;;;;;;;8066306;29;20523;-74
2020/12/12 04:08:46;;;;;;;50.35;23.17;;;;;;;;;;8066415;29;20471;-74
2020/12/12 04:12:50;;;;;;;53.92;19.83;;;;;;;;;;8066193;29;20847;-73
2020/12/12 04:16:53;;;;;;;53.55;21.27;;;;;;;;;;8065723;29;20386;-74
2020/12/12 04:20:56;;;;;;;31.90;15.40;;;;;;;;;;8065634;29;20615;-73
2020/12/12 04:24:59;;;;;;;47.03;16.08;;;;;;;;;;8065667;29;20509;-74
2020/12/12 04:29:02;;;;;;;70.35;21.42;;;;;;;;;;8066453;29;20517;-73
2020/12/12 04:33:05;;;;;;;53.03;23.52;;;;;;;;;;8066281;28;20055;-73
2020/12/12 04:37:08;;;;;;;43.83;14.30;;;;;;;;;;8062716;28;20578;-74
2020/12/12 04:41:13;;;;;;;43.95;15.98;;;;;;;;;;8116910;28;20477;-74
2020/12/12 04:45:20;;;;;;;35.05;14.65;;;;;;;;;;8115355;28;20088;-74
2020/12/12 04:49:23;;;;;;;53.33;17.88;;;;;;;;;;8135526;28;20514;-74
2020/12/12 04:53:26;;;;;;;53.33;15.88;;;;;;;;;;8116082;28;20081;-74
2020/12/12 04:57:34;;;;;;;43.38;14.05;;;;;;;;;;8133763;28;20461;-74
2020/12/12 05:01:38;;;;;;;44.75;16.85;;;;;;;;;;8131788;28;20626;-74
2020/12/12 05:05:41;;;;;;;45.10;19.92;;;;;;;;;;8131917;28;20492;-74
2020/12/12 05:09:45;;;;;;;41.22;15.05;;;;;;;;;;8115589;28;20377;-74
2020/12/12 05:13:48;;;;;;;31.33;14.35;;;;;;;;;;8131896;28;20549;-74
2020/12/12 05:17:51;;;;;;;39.53;15.25;;;;;;;;;;8133085;28;20377;-74
2020/12/12 05:21:55;;;;;;;43.05;16.52;;;;;;;;;;8132116;28;20084;-75
2020/12/12 05:25:58;;;;;;;32.97;15.25;;;;;;;;;;8131142;28;20377;-73
2020/12/12 05:30:01;;;;;;;35.53;14.82;;;;;;;;;;8131391;28;20480;-74
2020/12/12 05:34:16;;;;;;;36.92;15.98;;;;;;;;;;8130463;28;20476;-73
2020/12/12 05:38:19;;;;;;;34.55;14.63;;;;;;;;;;8132365;28;20527;-73
2020/12/12 05:42:24;;;;;;;38.67;13.82;;;;;;;;;;8097280;28;20366;-74
2020/12/12 05:46:26;;;;;;;34.28;12.57;;;;;;;;;;8059272;28;20077;-75
2020/12/12 05:50:30;;;;;;;36.55;13.88;;;;;;;;;;8131158;28;20058;-73
2020/12/12 05:54:33;;;;;;;38.53;15.77;;;;;;;;;;8129992;28;20376;-74
2020/12/12 05:58:36;;;;;;;30.08;13.38;;;;;;;;;;8114629;28;20480;-74
2020/12/12 06:02:43;;;;;;;42.63;12.82;;;;;;;;;;8112773;28;20499;-73
2020/12/12 06:06:47;;;;;;;38.92;14.35;;;;;;;;;;8128453;28;20384;-74
2020/12/12 06:10:53;;;;;;;33.15;12.77;;;;;;;;;;8083478;28;20369;-73
2020/12/12 06:14:59;;;;;;;31.85;13.07;;;;;;;;;;8129567;28;20668;-74
2020/12/12 06:19:14;;;;;;;27.95;11.73;;;;;;;;;;8014264;28;20081;-74
2020/12/12 06:23:18;;;;;;;35.47;12.63;;;;;;;;;;8063135;29;20497;-74
2020/12/12 06:27:21;;;;;;;33.55;13.07;;;;;;;;;;8046518;29;20055;-73
2020/12/12 06:31:26;;;;;;;25.33;10.93;;;;;;;;;;8062649;29;20635;-74
2020/12/12 06:35:34;;;;;;;30.92;12.13;;;;;;;;;;8046942;29;20602;-74
2020/12/12 06:39:45;;;;;;;35.15;12.05;;;;;;;;;;8046304;28;20535;-74
2020/12/12 06:43:55;;;;;;;25.67;11.40;;;;;;;;;;8062195;29;20055;-74
2020/12/12 06:47:58;;;;;;;30.80;12.40;;;;;;;;;;8071292;28;20084;-74
2020/12/12 06:52:03;;;;;;;27.95;14.07;;;;;;;;;;8112408;28;20354;-74
2020/12/12 06:56:14;;;;;;;26.20;11.70;;;;;;;;;;8130801;28;20405;-74
2020/12/12 07:00:34;;;;;;;29.17;11.90;;;;;;;;;;8129816;28;20519;-74
2020/12/12 07:04:38;;;;;;;31.13;11.93;;;;;;;;;;8129151;28;20599;-74
2020/12/12 07:08:41;;;;;;;82.82;13.20;;;;;;;;;;8112397;28;20452;-74
2020/12/12 07:12:45;;;;;;;25.77;12.05;;;;;;;;;;8129158;28;20549;-74
2020/12/12 07:16:57;;;;;;;33.08;11.68;;;;;;;;;;8049355;28;20569;-74
2020/12/12 07:21:00;;;;;;;37.03;13.70;;;;;;;;;;8135241;28;20068;-74
2020/12/12 07:25:06;;;;;;;41.80;15.45;;;;;;;;;;8135952;28;20535;-74
2020/12/12 07:29:09;;;;;;;29.77;13.80;;;;;;;;;;8135444;28;20642;-74
2020/12/12 07:33:12;;;;;;;23.55;11.45;;;;;;;;;;8134015;28;20428;-74
2020/12/12 07:37:18;;;;;;;38.60;13.63;;;;;;;;;;8127871;28;20707;-74
2020/12/12 07:41:21;;;;;;;34.78;13.35;;;;;;;;;;8131281;28;20420;-74
2020/12/12 07:45:34;;;;;;;37.05;12.45;;;;;;;;;;8131708;28;20397;-74
2020/12/12 07:49:38;;;;;;;53.47;15.25;;;;;;;;;;8131014;28;20622;-74
2020/12/12 07:53:42;;;;;;;33.08;13.45;;;;;;;;;;8133018;28;20054;-74
2020/12/12 07:57:52;;;;;;;35.10;12.70;;;;;;;;;;8132884;28;20413;-74
2020/12/12 08:02:02;;;;;;;33.03;14.82;;;;;;;;;;8132931;28;20381;-74
2020/12/12 08:06:10;;;;;;;30.48;13.45;;;;;;;;;;8127068;28;20384;-74
2020/12/12 08:10:13;;;;;;;25.80;12.50;;;;;;;;;;8097949;28;20384;-75
2020/12/12 08:14:16;;;;;;;30.48;12.38;;;;;;;;;;8097751;28;20550;-75
2020/12/12 08:18:19;;;;;;;42.88;13.40;;;;;;;;;;8097805;28;20457;-75
2020/12/12 08:22:24;;;;;;;30.80;11.23;;;;;;;;;;8132879;28;20492;-74
2020/12/12 08:26:30;;;;;;;34.22;12.68;;;;;;;;;;8129322;28;20665;-74
2020/12/12 08:30:33;;;;;;;37.60;12.27;;;;;;;;;;8127647;28;20405;-74
2020/12/12 08:34:36;;;;;;;29.20;11.75;;;;;;;;;;8132341;28;20382;-74
2020/12/12 08:38:41;;;;;;;38.17;11.45;;;;;;;;;;8126334;28;20481;-75
2020/12/12 08:43:17;;;;;;;24.80;11.82;;;;;;;;;;8093818;28;20484;-74
2020/12/12 08:47:20;;;;;;;32.08;13.02;;;;;;;;;;8000989;29;20571;-74
2020/12/12 08:51:32;;;;;;;22.38;9.25;;;;;;;;;;7997507;29;20512;-74
2020/12/12 08:55:35;;;;;;;21.50;10.73;;;;;;;;;;7971093;29;20395;-74
2020/12/12 09:18:01;;;;;;;540.35;147.93;;;;;;;;;;8339814;27;20613;-72
2020/12/12 09:22:09;;;;;;;147.38;56.72;;;;;;;;;;8318119;28;20615;-72
2020/12/12 09:26:12;;;;;;;39.30;18.00;;;;;;;;;;8317304;28;20040;-74
2020/12/12 09:30:15;;;;;;;38.60;16.15;;;;;;;;;;8319669;28;20827;-73
2020/12/12 09:34:18;;;;;;;52.70;23.08;;;;;;;;;;8320183;28;20360;-74
2020/12/12 09:38:22;;;;;;;101.47;35.72;;;;;;;;;;8300353;28;20440;-73
2020/12/12 09:42:28;;;;;;;54.65;16.92;;;;;;;;;;8264498;28;20382;-73
2020/12/12 09:46:30;;;;;;;141.00;46.25;;;;;;;;;;8281275;27;20071;-73
2020/12/12 09:50:35;;;;;;;160.15;57.83;;;;;;;;;;8248635;28;20562;-73
2020/12/12 09:54:38;;;;;;;140.90;52.95;;;;;;;;;;8249720;28;20383;-73
2020/12/12 09:58:42;;;;;;;74.82;29.45;;;;;;;;;;8250673;28;20375;-73
2020/12/12 10:02:48;;;;;;;47.33;19.98;;;;;;;;;;8248956;28;20379;-74
2020/12/12 10:06:51;;;;;;;41.15;17.38;;;;;;;;;;8282624;28;20485;-72
2020/12/12 10:10:55;;;;;;;24.17;13.30;;;;;;;;;;8249432;28;20045;-73
2020/12/12 10:15:00;;;;;;;29.15;11.82;;;;;;;;;;8252600;28;20513;-73
2020/12/12 10:19:04;;;;;;;39.05;15.85;;;;;;;;;;8248786;28;20075;-74
2020/12/12 10:23:08;;;;;;;56.15;24.00;;;;;;;;;;8249352;28;20974;-72
2020/12/12 10:27:11;;;;;;;22.42;10.82;;;;;;;;;;8241716;28;20449;-74
2020/12/12 10:31:18;;;;;;;29.92;13.68;;;;;;;;;;8211409;28;20624;-73
2020/12/12 10:35:22;;;;;;;27.20;13.15;;;;;;;;;;8230300;28;20830;-74
2020/12/12 10:39:28;;;;;;;31.83;11.82;;;;;;;;;;8258512;28;20481;-74
2020/12/12 10:43:32;;;;;;;28.80;11.75;;;;;;;;;;8180083;28;20754;-74
2020/12/12 10:47:35;;;;;;;39.25;21.63;;;;;;;;;;8209336;28;20490;-75
2020/12/12 10:51:46;;;;;;;571.20;200.18;;;;;;;;;;8244892;28;20425;-74
2020/12/12 10:55:49;;;;;;;218.93;75.60;;;;;;;;;;8259777;28;20481;-74
2020/12/12 10:59:52;;;;;;;462.02;184.57;;;;;;;;;;8243353;28;20482;-74
2020/12/12 11:03:56;;;;;;;53.35;22.95;;;;;;;;;;8258329;28;20550;-74
2020/12/12 11:08:03;;;;;;;60.08;26.27;;;;;;;;;;8259317;28;20060;-73
2020/12/12 11:12:07;;;;;;;35.58;14.95;;;;;;;;;;8257455;28;20406;-73
2020/12/12 11:16:11;;;;;;;77.10;26.52;;;;;;;;;;8257727;28;20531;-73
2020/12/12 11:20:16;;;;;;;56.15;21.30;;;;;;;;;;8222276;28;20454;-73
2020/12/12 11:24:22;;;;;;;65.80;21.85;;;;;;;;;;8222980;28;20509;-73
2020/12/12 11:28:25;;;;;;;30.10;14.43;;;;;;;;;;8256291;28;20666;-73
2020/12/12 11:32:38;;;;;;;108.22;36.13;;;;;;;;;;8257222;28;20634;-74
2020/12/12 11:37:05;;;;;;;150.13;51.40;;;;;;;;;;8222341;28;20505;-73
2020/12/12 11:41:24;;;;;;;234.70;58.40;;;;;;;;;;8253423;28;20570;-74
2020/12/12 11:45:55;;;;;;;207.77;50.45;;;;;;;;;;8191065;28;20390;-74
2020/12/12 11:49:58;;;;;;;125.80;32.55;;;;;;;;;;8234739;28;20510;-73
2020/12/12 11:54:00;;;;;;;197.10;63.53;;;;;;;;;;8198690;28;20371;-72
2020/12/12 11:58:03;;;;;;;59.70;26.80;;;;;;;;;;8200984;28;20076;-74
2020/12/12 12:02:07;;;;;;;32.92;15.57;;;;;;;;;;8178925;28;20216;-73
2020/12/12 12:06:10;;;;;;;40.75;18.67;;;;;;;;;;8192569;28;20474;-72
2020/12/12 12:10:27;;;;;;;41.55;17.35;;;;;;;;;;8220103;28;21105;-74
2020/12/12 12:14:30;;;;;;;60.35;15.95;;;;;;;;;;8219810;28;20364;-75
2020/12/12 12:18:34;;;;;;;40.55;21.05;;;;;;;;;;8217695;28;20503;-73
2020/12/12 12:22:37;;;;;;;51.25;26.17;;;;;;;;;;8202599;28;20677;-73
2020/12/12 12:26:40;;;;;;;199.07;63.05;;;;;;;;;;8193686;28;20651;-74
2020/12/12 12:30:46;;;;;;;422.63;125.25;;;;;;;;;;8217066;28;20580;-73
2020/12/12 12:34:50;;;;;;;122.07;44.90;;;;;;;;;;8219448;28;20479;-73
2020/12/12 12:38:54;;;;;;;77.47;30.75;;;;;;;;;;8223132;28;20628;-74
2020/12/12 12:42:58;;;;;;;53.65;25.52;;;;;;;;;;8240508;28;20049;-73
2020/12/12 12:47:01;;;;;;;251.25;93.47;;;;;;;;;;8226868;28;20489;-73
2020/12/12 12:51:08;;;;;;;50.65;20.08;;;;;;;;;;8224768;28;20489;-73
2020/12/12 12:55:11;;;;;;;101.60;37.78;;;;;;;;;;8241345;28;20065;-73
2020/12/12 12:59:16;;;;;;;51.97;21.10;;;;;;;;;;8225692;28;20083;-73
2020/12/12 13:03:20;;;;;;;65.43;23.83;;;;;;;;;;8224732;28;20701;-73
2020/12/12 13:07:27;;;;;;;138.82;42.22;;;;;;;;;;8213951;28;20080;-72
2020/12/12 13:11:30;;;;;;;242.73;67.78;;;;;;;;;;8214174;28;20041;-72
2020/12/12 13:15:35;;;;;;;144.88;43.78;;;;;;;;;;8204166;28;20048;-73
2020/12/12 13:19:45;;;;;;;194.23;62.63;;;;;;;;;;8239650;28;20616;-72
2020/12/12 13:23:48;;;;;;;79.13;32.05;;;;;;;;;;8259321;28;20627;-73
2020/12/12 13:28:01;;;;;;;60.10;24.00;;;;;;;;;;8207172;28;20070;-73
2020/12/12 13:32:04;;;;;;;46.92;20.35;;;;;;;;;;8220881;28;20644;-73
2020/12/12 13:36:09;;;;;;;55.97;21.60;;;;;;;;;;8204614;28;20045;-72
2020/12/12 13:40:12;;;;;;;65.32;21.98;;;;;;;;;;8220940;28;20487;-72
2020/12/12 13:44:16;;;;;;;58.15;21.95;;;;;;;;;;8188080;28;20418;-73
2020/12/12 13:48:20;;;;;;;85.78;33.35;;;;;;;;;;8220871;28;20587;-73
2020/12/12 13:52:22;;;;;;;45.28;20.17;;;;;;;;;;8220625;28;20060;-73
2020/12/12 13:56:28;;;;;;;58.80;23.05;;;;;;;;;;8219644;28;20549;-73
2020/12/12 14:00:39;;;;;;;55.38;23.45;;;;;;;;;;8220797;28;20483;-73
2020/12/12 14:04:42;;;;;;;36.45;15.85;;;;;;;;;;8263081;28;20555;-74
2020/12/12 14:09:03;;;;;;;51.20;23.17;;;;;;;;;;8263147;28;20071;-74
2020/12/12 14:26:21;;;;;;;126.90;36.67;;;;;;;;;;8190028;28;20523;-74
2020/12/12 14:30:24;;;;;;;53.05;20.92;;;;;;;;;;8164310;28;20377;-74
2020/12/12 14:34:27;;;;;;;46.30;18.42;;;;;;;;;;8185926;28;20045;-74
2020/12/12 14:38:30;;;;;;;41.75;17.52;;;;;;;;;;8200325;28;20197;-74
2020/12/12 14:42:34;;;;;;;29.48;13.00;;;;;;;;;;8201683;28;20388;-74
2020/12/12 14:46:37;;;;;;;39.90;17.48;;;;;;;;;;8202532;28;20049;-73
2020/12/12 14:50:41;;;;;;;48.08;19.23;;;;;;;;;;8244067;28;20425;-73
2020/12/12 14:54:44;;;;;;;42.53;14.77;;;;;;;;;;8253250;28;20447;-72
2020/12/12 14:58:46;;;;;;;40.45;17.90;;;;;;;;;;8272624;28;20060;-73
2020/12/12 15:02:50;;;;;;;47.67;21.88;;;;;;;;;;8274037;28;20395;-73
2020/12/12 15:06:53;;;;;;;67.82;20.38;;;;;;;;;;8271014;28;20048;-75
2020/12/12 15:11:21;;;;;;;73.15;30.45;;;;;;;;;;8272298;28;20473;-72
2020/12/12 15:15:24;;;;;;;146.48;57.47;;;;;;;;;;8271368;28;20467;-72
2020/12/12 15:19:28;;;;;;;114.78;43.67;;;;;;;;;;8271721;28;20374;-73
2020/12/12 15:23:31;;;;;;;106.47;40.08;;;;;;;;;;8287665;28;20463;-72
2020/12/12 15:27:34;;;;;;;113.43;44.45;;;;;;;;;;8252774;28;20569;-73
2020/12/12 15:31:38;;;;;;;60.40;24.85;;;;;;;;;;8270757;28;20481;-73
2020/12/12 15:35:41;;;;;;;61.90;25.58;;;;;;;;;;8269059;28;20406;-73
2020/12/12 15:39:44;;;;;;;71.88;29.02;;;;;;;;;;8252413;28;20294;-73
2020/12/12 15:43:47;;;;;;;73.03;29.80;;;;;;;;;;8253752;28;20481;-73
2020/12/12 15:47:53;;;;;;;67.03;25.75;;;;;;;;;;8268064;28;20474;-73
2020/12/12 15:51:56;;;;;;;84.45;30.45;;;;;;;;;;8235930;28;20459;-73
2020/12/12 15:56:00;;;;;;;62.63;19.30;;;;;;;;;;8234793;28;20374;-72
2020/12/12 16:00:04;;;;;;;640.03;237.10;;;;;;;;;;8269270;28;20293;-73
2020/12/12 16:04:14;;;;;;;83.28;37.00;;;;;;;;;;8258440;28;20414;-72
2020/12/12 16:08:23;;;;;;;45.05;16.35;;;;;;;;;;8242926;28;20475;-72
2020/12/12 16:12:29;;;;;;;54.35;18.38;;;;;;;;;;8228471;28;20076;-72
2020/12/12 16:16:32;;;;;;;59.00;21.08;;;;;;;;;;8228494;28;20485;-73
2020/12/12 16:20:36;;;;;;;69.40;22.30;;;;;;;;;;8231598;28;20418;-74
2020/12/12 16:24:39;;;;;;;51.38;18.10;;;;;;;;;;8222863;28;20387;-74
2020/12/12 16:28:43;;;;;;;39.33;15.95;;;;;;;;;;8222643;28;20435;-73
2020/12/12 16:32:50;;;;;;;51.67;19.05;;;;;;;;;;8223461;28;20442;-73
2020/12/12 16:36:53;;;;;;;49.95;18.58;;;;;;;;;;8223443;28;20641;-73
2020/12/12 16:40:56;;;;;;;44.63;19.67;;;;;;;;;;8222809;28;20041;-73
2020/12/12 16:44:59;;;;;;;34.03;18.52;;;;;;;;;;8222269;28;20563;-74
2020/12/12 16:49:02;;;;;;;43.85;23.60;;;;;;;;;;8222523;28;20374;-73
2020/12/12 16:53:20;;;;;;;75.22;36.63;;;;;;;;;;8233849;28;20057;-74
2020/12/12 16:57:30;;;;;;;65.65;35.85;;;;;;;;;;8190073;28;20084;-73
2020/12/12 17:01:43;;;;;;;83.63;41.08;;;;;;;;;;8242855;28;20527;-73
2020/12/12 17:05:48;;;;;;;32.30;14.13;;;;;;;;;;8228105;28;20463;-73
2020/12/12 17:09:54;;;;;;;118.95;46.35;;;;;;;;;;8209164;28;20502;-73
2020/12/12 17:13:57;;;;;;;104.75;42.72;;;;;;;;;;8227778;28;20356;-74
2020/12/12 17:18:00;;;;;;;134.73;52.00;;;;;;;;;;8208532;28;20075;-74
2020/12/12 17:22:10;;;;;;;51.20;21.67;;;;;;;;;;8227793;28;20395;-73
2020/12/12 17:26:14;;;;;;;149.57;51.60;;;;;;;;;;8228117;28;20487;-73
2020/12/12 17:30:18;;;;;;;151.27;51.80;;;;;;;;;;8227387;28;20494;-73
2020/12/12 17:34:24;;;;;;;231.50;88.35;;;;;;;;;;8224962;28;20478;-72
2020/12/12 17:38:27;;;;;;;181.32;60.42;;;;;;;;;;8232360;28;20533;-74
2020/12/12 17:42:30;;;;;;;80.75;27.27;;;;;;;;;;8232577;28;20574;-73
2020/12/12 17:46:33;;;;;;;196.00;66.25;;;;;;;;;;8233567;28;20067;-72
2020/12/12 17:50:36;;;;;;;88.95;30.75;;;;;;;;;;8234351;28;20406;-72
2020/12/12 17:54:42;;;;;;;102.97;41.78;;;;;;;;;;8233363;28;20375;-72
2020/12/12 17:58:45;;;;;;;61.47;21.73;;;;;;;;;;8234075;28;20383;-73
2020/12/12 18:02:52;;;;;;;71.85;24.60;;;;;;;;;;8233978;28;20370;-73
2020/12/12 18:06:56;;;;;;;155.13;57.85;;;;;;;;;;8232851;28;20566;-73
2020/12/12 18:11:01;;;;;;;82.40;29.35;;;;;;;;;;8214019;28;20367;-73
2020/12/12 18:15:08;;;;;;;144.27;64.35;;;;;;;;;;8232054;28;20175;-73
2020/12/12 18:19:13;;;;;;;34.33;16.10;;;;;;;;;;8233401;28;20071;-73
2020/12/12 18:23:17;;;;;;;531.92;209.63;;;;;;;;;;8232780;28;20425;-73
2020/12/12 18:27:21;;;;;;;799.22;335.45;;;;;;;;;;8247419;28;20475;-73
2020/12/12 18:31:25;;;;;;;208.13;81.32;;;;;;;;;;8233125;28;20410;-74
2020/12/12 18:35:31;;;;;;;288.10;108.93;;;;;;;;;;8233278;28;20071;-74
2020/12/12 18:39:34;;;;;;;312.73;65.93;;;;;;;;;;8181224;28;20664;-73
2020/12/12 18:43:43;;;;;;;509.38;127.78;;;;;;;;;;8232920;28;20490;-74
2020/12/12 18:47:50;;;;;;;1009.42;285.38;;;;;;;;;;8212661;28;20442;-73
2020/12/12 18:51:54;;;;;;;179.20;49.70;;;;;;;;;;8234236;28;20661;-74
2020/12/12 18:55:58;;;;;;;1994.53;571.70;;;;;;;;;;8263475;28;20645;-74
2020/12/12 19:00:03;;;;;;;294.27;72.53;;;;;;;;;;8231992;28;20483;-74
2020/12/12 19:04:09;;;;;;;1269.57;305.67;;;;;;;;;;8232128;28;20056;-73
2020/12/12 19:08:14;;;;;;;1999.90;566.47;;;;;;;;;;8263686;28;20384;-73
2020/12/12 19:12:17;;;;;;;308.27;73.85;;;;;;;;;;8231671;28;20383;-73
2020/12/12 19:16:22;;;;;;;424.38;83.05;;;;;;;;;;8231601;28;20509;-73
2020/12/12 19:20:27;;;;;;;240.48;52.20;;;;;;;;;;8214324;28;20387;-73
2020/12/12 19:24:33;;;;;;;776.83;174.52;;;;;;;;;;8231668;28;20380;-73
2020/12/12 19:28:41;;;;;;;180.48;43.97;;;;;;;;;;8212674;28;20092;-73
2020/12/12 19:32:46;;;;;;;284.05;56.30;;;;;;;;;;8212506;28;20071;-73
2020/12/12 19:36:50;;;;;;;482.83;101.25;;;;;;;;;;8231621;28;20468;-73
2020/12/12 19:40:56;;;;;;;195.18;40.10;;;;;;;;;;8231283;28;20490;-73
2020/12/12 19:44:59;;;;;;;768.80;163.90;;;;;;;;;;8228920;28;20325;-73
2020/12/12 19:49:07;;;;;;;285.25;55.67;;;;;;;;;;8232487;28;20647;-73
2020/12/12 19:53:10;;;;;;;156.15;34.88;;;;;;;;;;8227859;28;20488;-73
2020/12/12 19:57:14;;;;;;;190.70;39.20;;;;;;;;;;8227855;28;20049;-73
2020/12/12 20:01:25;;;;;;;382.00;79.97;;;;;;;;;;8229103;28;20064;-73
2020/12/12 20:05:29;;;;;;;59.05;19.70;;;;;;;;;;8227273;28;20685;-73
2020/12/12 20:09:34;;;;;;;152.80;33.35;;;;;;;;;;8228123;28;20066;-76
2020/12/12 20:13:38;;;;;;;41.47;18.35;;;;;;;;;;8260403;28;20052;-73
2020/12/12 20:17:43;;;;;;;34.58;14.52;;;;;;;;;;8242670;28;20379;-73
2020/12/12 20:21:48;;;;;;;177.80;41.53;;;;;;;;;;8260608;28;20378;-74
2020/12/12 20:25:52;;;;;;;97.07;27.55;;;;;;;;;;8261435;28;20520;-74
2020/12/12 20:29:55;;;;;;;28.63;12.88;;;;;;;;;;8229058;28;20467;-75
2020/12/12 20:33:58;;;;;;;41.65;15.55;;;;;;;;;;8229106;28;20061;-73
2020/12/12 20:38:03;;;;;;;32.13;13.48;;;;;;;;;;8228976;28;20355;-73
2020/12/12 20:42:07;;;;;;;38.35;15.25;;;;;;;;;;8209945;28;20049;-74
2020/12/12 20:46:12;;;;;;;286.60;80.43;;;;;;;;;;8227693;28;20406;-74
2020/12/12 20:50:20;;;;;;;402.98;123.80;;;;;;;;;;8177305;28;20494;-73
2020/12/12 20:54:23;;;;;;;50.38;21.83;;;;;;;;;;8228724;28;20655;-72
2020/12/12 20:58:27;;;;;;;511.42;161.95;;;;;;;;;;8095042;28;20357;-72
2020/12/12 21:02:31;;;;;;;53.97;22.80;;;;;;;;;;8162382;28;20408;-74
2020/12/12 21:06:34;;;;;;;43.92;17.90;;;;;;;;;;8160815;28;20368;-72
2020/12/12 21:10:39;;;;;;;69.78;25.13;;;;;;;;;;8163510;28;20049;-72
2020/12/12 21:14:43;;;;;;;32.35;14.32;;;;;;;;;;8162102;28;20413;-72
2020/12/12 21:18:46;;;;;;;55.88;18.92;;;;;;;;;;8144792;28;20092;-74
2020/12/12 21:22:51;;;;;;;64.97;21.83;;;;;;;;;;8177328;28;20695;-74
2020/12/12 21:26:55;;;;;;;41.30;17.27;;;;;;;;;;8164002;28;20488;-73
2020/12/12 21:30:59;;;;;;;41.55;16.75;;;;;;;;;;8177716;28;20610;-74
2020/12/12 21:35:03;;;;;;;31.75;14.48;;;;;;;;;;8163001;28;20349;-74
2020/12/12 21:39:07;;;;;;;46.78;18.10;;;;;;;;;;8161202;28;20376;-74
2020/12/12 21:43:11;;;;;;;399.77;99.82;;;;;;;;;;8109853;28;20478;-73
2020/12/12 21:47:22;;;;;;;49.95;19.48;;;;;;;;;;8109725;28;20577;-73
2020/12/12 21:51:47;;;;;;;31.40;13.48;;;;;;;;;;8094254;28;20081;-73
2020/12/12 21:55:50;;;;;;;40.63;14.73;;;;;;;;;;8094160;28;20565;-74
2020/12/12 21:59:53;;;;;;;39.00;16.48;;;;;;;;;;8094703;28;20667;-74
2020/12/12 22:04:00;;;;;;;34.20;15.25;;;;;;;;;;8093816;28;20465;-74
2020/12/12 22:08:08;;;;;;;172.93;52.22;;;;;;;;;;8094242;28;20067;-75
2020/12/12 22:12:11;;;;;;;44.13;16.75;;;;;;;;;;8105421;28;20465;-73
2020/12/12 22:16:14;;;;;;;42.95;15.93;;;;;;;;;;8144110;28;20499;-72
2020/12/12 22:20:19;;;;;;;70.25;22.92;;;;;;;;;;8163122;28;20507;-73
2020/12/12 22:24:23;;;;;;;142.25;42.42;;;;;;;;;;8166376;28;20456;-74
2020/12/12 22:28:27;;;;;;;47.35;16.95;;;;;;;;;;8168416;28;20465;-73
2020/12/12 22:32:30;;;;;;;46.00;16.73;;;;;;;;;;8165182;28;20282;-73
2020/12/12 22:36:33;;;;;;;63.35;21.08;;;;;;;;;;8168436;28;20661;-74
2020/12/12 22:40:36;;;;;;;86.68;27.35;;;;;;;;;;8166025;28;20477;-73
2020/12/12 22:44:39;;;;;;;91.97;32.45;;;;;;;;;;8166893;28;20097;-75
2020/12/12 22:48:46;;;;;;;48.95;17.92;;;;;;;;;;8165467;28;20472;-74
2020/12/12 22:52:48;;;;;;;29.83;12.63;;;;;;;;;;8168216;28;20050;-73
2020/12/12 22:56:51;;;;;;;49.00;19.73;;;;;;;;;;8170072;28;20453;-73
2020/12/12 23:00:56;;;;;;;39.78;17.58;;;;;;;;;;8166264;28;20508;-73
2020/12/12 23:04:59;;;;;;;41.45;15.75;;;;;;;;;;8167439;28;20640;-74
2020/12/12 23:09:02;;;;;;;43.17;18.15;;;;;;;;;;8167142;28;20490;-73
2020/12/12 23:13:07;;;;;;;44.30;16.98;;;;;;;;;;8166808;28;20499;-74
2020/12/12 23:17:11;;;;;;;36.75;15.23;;;;;;;;;;8164013;28;20488;-74
2020/12/12 23:21:27;;;;;;;36.75;15.65;;;;;;;;;;8166714;28;20053;-74
2020/12/12 23:25:30;;;;;;;41.17;16.60;;;;;;;;;;8166611;28;20488;-74
2020/12/12 23:29:33;;;;;;;46.00;15.88;;;;;;;;;;8168016;28;20682;-74
2020/12/12 23:33:36;;;;;;;36.25;13.98;;;;;;;;;;8165390;28;20085;-74
2020/12/12 23:37:44;;;;;;;37.65;14.80;;;;;;;;;;8166629;28;20046;-74
2020/12/12 23:41:47;;;;;;;36.63;13.95;;;;;;;;;;8164804;28;20380;-73
2020/12/12 23:45:50;;;;;;;40.75;14.93;;;;;;;;;;8162913;28;20579;-73
2020/12/12 23:49:53;;;;;;;167.02;35.20;;;;;;;;;;8165930;28;20545;-74
2020/12/12 23:53:56;;;;;;;288.52;55.58;;;;;;;;;;8165733;28;20476;-73
2020/12/12 23:58:01;;;;;;;295.10;59.28;;;;;;;;;;8165638;28;20381;-73
